Weather at Hamburg Helmut Schmidt Airport

Public forecast

Using degrees Celsius for public forecast. Weather courtesy of forecast.io.

Current aviation weather report (METAR) for Hamburg Helmut Schmidt Airport

2024/04/22 13:20 (retrieved 11 minutes ago)

EDDH 221320Z AUTO 01006KT 320V050 CAVOK 07/M01 Q1023 TEMPO SHRASN SCT025CB

Aviation forecast (TAF) for Hamburg Helmut Schmidt Airport

2024/04/22 12:27 (retrieved 1 hour ago)

TAF EDDH 221100Z 2212/2318 34005KT CAVOK PROB30 TEMPO 2212/2217 04010KT 3000 SHRAGS BKN025CB BECMG 2214/2216 05005KT BECMG 2217/2219 VRB02KT BECMG 2308/2310 29005KT PROB30 TEMPO 2312/2316 29015G25KT